sensor_id;sensor_type;location;lat;lon;timestamp;P1;durP1;ratioP1;P2;durP2;ratioP2
15643;SDS011;7921;43.586;1.408;2024-03-22T00:02:15;8.20;;;7.07;;
15643;SDS011;7921;43.586;1.408;2024-03-22T00:04:41;10.23;;;7.38;;
15643;SDS011;7921;43.586;1.408;2024-03-22T00:07:06;9.77;;;8.00;;
15643;SDS011;7921;43.586;1.408;2024-03-22T00:09:32;10.02;;;8.35;;
15643;SDS011;7921;43.586;1.408;2024-03-22T00:11:57;10.25;;;8.38;;
15643;SDS011;7921;43.586;1.408;2024-03-22T00:14:23;9.70;;;7.45;;
15643;SDS011;7921;43.586;1.408;2024-03-22T00:16:48;10.73;;;8.05;;
15643;SDS011;7921;43.586;1.408;2024-03-22T00:19:13;12.40;;;8.18;;
15643;SDS011;7921;43.586;1.408;2024-03-22T00:21:39;10.20;;;7.50;;
15643;SDS011;7921;43.586;1.408;2024-03-22T00:24:04;12.70;;;8.38;;
15643;SDS011;7921;43.586;1.408;2024-03-22T00:26:30;12.45;;;8.02;;
15643;SDS011;7921;43.586;1.408;2024-03-22T00:28:56;11.75;;;7.30;;
15643;SDS011;7921;43.586;1.408;2024-03-22T00:31:23;9.23;;;7.40;;
15643;SDS011;7921;43.586;1.408;2024-03-22T00:33:49;10.35;;;7.07;;
15643;SDS011;7921;43.586;1.408;2024-03-22T00:36:14;8.82;;;6.68;;
15643;SDS011;7921;43.586;1.408;2024-03-22T00:38:40;7.63;;;6.78;;
15643;SDS011;7921;43.586;1.408;2024-03-22T00:41:05;9.13;;;7.97;;
15643;SDS011;7921;43.586;1.408;2024-03-22T00:43:31;9.30;;;7.63;;
15643;SDS011;7921;43.586;1.408;2024-03-22T00:45:57;10.53;;;8.13;;
15643;SDS011;7921;43.586;1.408;2024-03-22T00:48:23;11.48;;;7.97;;
15643;SDS011;7921;43.586;1.408;2024-03-22T00:50:48;9.75;;;7.95;;
15643;SDS011;7921;43.586;1.408;2024-03-22T00:53:14;9.33;;;7.47;;
15643;SDS011;7921;43.586;1.408;2024-03-22T00:55:39;10.93;;;8.50;;
15643;SDS011;7921;43.586;1.408;2024-03-22T00:58:05;12.20;;;9.00;;
15643;SDS011;7921;43.586;1.408;2024-03-22T01:00:30;8.93;;;8.02;;
15643;SDS011;7921;43.586;1.408;2024-03-22T01:02:56;12.52;;;7.43;;
15643;SDS011;7921;43.586;1.408;2024-03-22T01:05:21;11.50;;;7.50;;
15643;SDS011;7921;43.586;1.408;2024-03-22T01:07:46;9.23;;;7.70;;
15643;SDS011;7921;43.586;1.408;2024-03-22T01:10:12;9.23;;;7.72;;
15643;SDS011;7921;43.586;1.408;2024-03-22T01:12:38;9.33;;;6.77;;
15643;SDS011;7921;43.586;1.408;2024-03-22T01:15:04;10.10;;;7.60;;
15643;SDS011;7921;43.586;1.408;2024-03-22T01:17:30;10.40;;;7.33;;
15643;SDS011;7921;43.586;1.408;2024-03-22T01:19:56;10.47;;;7.37;;
15643;SDS011;7921;43.586;1.408;2024-03-22T01:22:21;9.53;;;7.73;;
15643;SDS011;7921;43.586;1.408;2024-03-22T01:24:46;10.67;;;7.77;;
15643;SDS011;7921;43.586;1.408;2024-03-22T01:27:12;8.10;;;7.20;;
15643;SDS011;7921;43.586;1.408;2024-03-22T01:29:38;9.97;;;7.20;;
15643;SDS011;7921;43.586;1.408;2024-03-22T01:32:03;8.00;;;6.60;;
15643;SDS011;7921;43.586;1.408;2024-03-22T01:34:29;9.00;;;6.33;;
15643;SDS011;7921;43.586;1.408;2024-03-22T01:36:54;7.33;;;6.10;;
15643;SDS011;7921;43.586;1.408;2024-03-22T01:39:20;10.17;;;7.10;;
15643;SDS011;7921;43.586;1.408;2024-03-22T01:41:48;10.35;;;6.95;;
15643;SDS011;7921;43.586;1.408;2024-03-22T01:44:14;9.50;;;6.20;;
15643;SDS011;7921;43.586;1.408;2024-03-22T01:46:41;10.90;;;6.90;;
15643;SDS011;7921;43.586;1.408;2024-03-22T01:49:08;10.82;;;6.35;;
15643;SDS011;7921;43.586;1.408;2024-03-22T01:51:34;9.87;;;7.03;;
15643;SDS011;7921;43.586;1.408;2024-03-22T01:54:01;9.63;;;6.27;;
15643;SDS011;7921;43.586;1.408;2024-03-22T01:56:27;8.07;;;7.25;;
15643;SDS011;7921;43.586;1.408;2024-03-22T01:58:52;10.55;;;7.22;;
15643;SDS011;7921;43.586;1.408;2024-03-22T02:01:18;10.33;;;7.23;;
15643;SDS011;7921;43.586;1.408;2024-03-22T02:03:43;10.68;;;7.85;;
15643;SDS011;7921;43.586;1.408;2024-03-22T02:06:09;7.77;;;6.93;;
15643;SDS011;7921;43.586;1.408;2024-03-22T02:08:35;9.47;;;7.43;;
15643;SDS011;7921;43.586;1.408;2024-03-22T02:11:00;7.30;;;6.53;;
15643;SDS011;7921;43.586;1.408;2024-03-22T02:13:26;9.53;;;7.10;;
15643;SDS011;7921;43.586;1.408;2024-03-22T02:15:52;12.07;;;7.73;;
15643;SDS011;7921;43.586;1.408;2024-03-22T02:18:17;8.80;;;7.37;;
15643;SDS011;7921;43.586;1.408;2024-03-22T02:20:42;9.57;;;7.67;;
15643;SDS011;7921;43.586;1.408;2024-03-22T02:23:08;9.40;;;7.60;;
15643;SDS011;7921;43.586;1.408;2024-03-22T02:25:33;11.00;;;8.07;;
15643;SDS011;7921;43.586;1.408;2024-03-22T02:27:58;11.90;;;8.37;;
15643;SDS011;7921;43.586;1.408;2024-03-22T02:30:24;8.07;;;7.20;;
15643;SDS011;7921;43.586;1.408;2024-03-22T02:32:49;10.20;;;7.13;;
15643;SDS011;7921;43.586;1.408;2024-03-22T02:35:15;9.53;;;6.83;;
15643;SDS011;7921;43.586;1.408;2024-03-22T02:37:40;9.60;;;6.87;;
15643;SDS011;7921;43.586;1.408;2024-03-22T02:40:06;10.47;;;7.33;;
15643;SDS011;7921;43.586;1.408;2024-03-22T02:42:32;10.57;;;7.43;;
15643;SDS011;7921;43.586;1.408;2024-03-22T02:44:57;9.77;;;8.37;;
15643;SDS011;7921;43.586;1.408;2024-03-22T02:47:22;13.23;;;9.27;;
15643;SDS011;7921;43.586;1.408;2024-03-22T02:49:48;11.57;;;9.83;;
15643;SDS011;7921;43.586;1.408;2024-03-22T02:52:13;12.27;;;9.87;;
15643;SDS011;7921;43.586;1.408;2024-03-22T02:54:39;11.73;;;8.93;;
15643;SDS011;7921;43.586;1.408;2024-03-22T02:57:04;9.60;;;7.93;;
15643;SDS011;7921;43.586;1.408;2024-03-22T02:59:29;10.63;;;7.97;;
15643;SDS011;7921;43.586;1.408;2024-03-22T03:01:55;11.87;;;7.73;;
15643;SDS011;7921;43.586;1.408;2024-03-22T03:04:20;8.93;;;6.60;;
15643;SDS011;7921;43.586;1.408;2024-03-22T03:06:46;8.57;;;6.53;;
15643;SDS011;7921;43.586;1.408;2024-03-22T03:09:11;10.13;;;6.80;;
15643;SDS011;7921;43.586;1.408;2024-03-22T03:11:40;8.93;;;6.70;;
15643;SDS011;7921;43.586;1.408;2024-03-22T03:14:06;10.47;;;6.13;;
15643;SDS011;7921;43.586;1.408;2024-03-22T03:16:31;7.27;;;5.60;;
15643;SDS011;7921;43.586;1.408;2024-03-22T03:18:57;9.33;;;6.80;;
15643;SDS011;7921;43.586;1.408;2024-03-22T03:21:22;8.53;;;6.53;;
15643;SDS011;7921;43.586;1.408;2024-03-22T03:23:47;9.93;;;7.00;;
15643;SDS011;7921;43.586;1.408;2024-03-22T03:26:13;10.20;;;7.03;;
15643;SDS011;7921;43.586;1.408;2024-03-22T03:28:38;7.67;;;6.23;;
15643;SDS011;7921;43.586;1.408;2024-03-22T03:31:04;10.87;;;6.40;;
15643;SDS011;7921;43.586;1.408;2024-03-22T03:33:30;8.97;;;6.50;;
15643;SDS011;7921;43.586;1.408;2024-03-22T03:35:55;7.23;;;6.47;;
15643;SDS011;7921;43.586;1.408;2024-03-22T03:38:21;9.67;;;7.20;;
15643;SDS011;7921;43.586;1.408;2024-03-22T03:40:47;11.03;;;7.77;;
15643;SDS011;7921;43.586;1.408;2024-03-22T03:43:13;8.67;;;6.77;;
15643;SDS011;7921;43.586;1.408;2024-03-22T03:45:38;7.17;;;6.47;;
15643;SDS011;7921;43.586;1.408;2024-03-22T03:48:03;7.63;;;5.97;;
15643;SDS011;7921;43.586;1.408;2024-03-22T03:50:29;10.40;;;6.93;;
15643;SDS011;7921;43.586;1.408;2024-03-22T03:52:55;8.20;;;6.93;;
15643;SDS011;7921;43.586;1.408;2024-03-22T03:55:21;8.80;;;5.77;;
15643;SDS011;7921;43.586;1.408;2024-03-22T03:57:47;8.53;;;6.10;;
15643;SDS011;7921;43.586;1.408;2024-03-22T04:00:12;7.00;;;6.00;;
15643;SDS011;7921;43.586;1.408;2024-03-22T04:02:38;9.60;;;6.00;;
15643;SDS011;7921;43.586;1.408;2024-03-22T04:05:03;8.67;;;6.27;;
15643;SDS011;7921;43.586;1.408;2024-03-22T04:07:29;9.63;;;5.80;;
15643;SDS011;7921;43.586;1.408;2024-03-22T04:09:54;6.37;;;5.73;;
15643;SDS011;7921;43.586;1.408;2024-03-22T04:12:20;10.83;;;6.10;;
15643;SDS011;7921;43.586;1.408;2024-03-22T04:14:45;8.33;;;5.77;;
15643;SDS011;7921;43.586;1.408;2024-03-22T04:17:10;7.93;;;6.13;;
15643;SDS011;7921;43.586;1.408;2024-03-22T04:19:36;7.83;;;5.53;;
15643;SDS011;7921;43.586;1.408;2024-03-22T04:22:01;6.57;;;5.73;;
15643;SDS011;7921;43.586;1.408;2024-03-22T04:24:27;8.23;;;5.30;;
15643;SDS011;7921;43.586;1.408;2024-03-22T04:26:52;9.13;;;5.93;;
15643;SDS011;7921;43.586;1.408;2024-03-22T04:29:17;7.63;;;5.63;;
15643;SDS011;7921;43.586;1.408;2024-03-22T04:31:43;8.70;;;5.83;;
15643;SDS011;7921;43.586;1.408;2024-03-22T04:34:08;8.53;;;6.80;;
15643;SDS011;7921;43.586;1.408;2024-03-22T04:36:35;6.17;;;5.57;;
15643;SDS011;7921;43.586;1.408;2024-03-22T04:39:00;8.10;;;6.17;;
15643;SDS011;7921;43.586;1.408;2024-03-22T04:41:26;8.53;;;5.90;;
15643;SDS011;7921;43.586;1.408;2024-03-22T04:43:51;6.27;;;5.40;;
15643;SDS011;7921;43.586;1.408;2024-03-22T04:46:17;5.73;;;5.23;;
15643;SDS011;7921;43.586;1.408;2024-03-22T04:48:42;8.40;;;5.53;;
15643;SDS011;7921;43.586;1.408;2024-03-22T04:51:07;8.67;;;5.40;;
15643;SDS011;7921;43.586;1.408;2024-03-22T04:53:33;7.47;;;5.47;;
15643;SDS011;7921;43.586;1.408;2024-03-22T04:55:58;6.67;;;5.97;;
15643;SDS011;7921;43.586;1.408;2024-03-22T04:58:23;8.80;;;5.87;;
15643;SDS011;7921;43.586;1.408;2024-03-22T05:00:49;7.10;;;5.20;;
15643;SDS011;7921;43.586;1.408;2024-03-22T05:03:15;11.97;;;6.67;;
15643;SDS011;7921;43.586;1.408;2024-03-22T05:05:41;6.73;;;6.03;;
15643;SDS011;7921;43.586;1.408;2024-03-22T05:08:07;6.27;;;5.17;;
15643;SDS011;7921;43.586;1.408;2024-03-22T05:10:33;6.63;;;5.67;;
15643;SDS011;7921;43.586;1.408;2024-03-22T05:12:59;6.80;;;5.73;;
15643;SDS011;7921;43.586;1.408;2024-03-22T05:15:25;6.87;;;6.17;;
15643;SDS011;7921;43.586;1.408;2024-03-22T05:17:50;7.80;;;5.80;;
15643;SDS011;7921;43.586;1.408;2024-03-22T05:20:16;7.27;;;5.73;;
15643;SDS011;7921;43.586;1.408;2024-03-22T05:22:42;6.00;;;5.40;;
15643;SDS011;7921;43.586;1.408;2024-03-22T05:25:08;7.97;;;5.73;;
15643;SDS011;7921;43.586;1.408;2024-03-22T05:27:34;8.33;;;5.63;;
15643;SDS011;7921;43.586;1.408;2024-03-22T05:30:00;6.80;;;5.50;;
15643;SDS011;7921;43.586;1.408;2024-03-22T05:32:26;6.77;;;5.67;;
15643;SDS011;7921;43.586;1.408;2024-03-22T05:34:52;10.53;;;5.83;;
15643;SDS011;7921;43.586;1.408;2024-03-22T05:37:17;7.47;;;5.43;;
15643;SDS011;7921;43.586;1.408;2024-03-22T05:39:43;7.30;;;5.37;;
15643;SDS011;7921;43.586;1.408;2024-03-22T05:42:08;8.47;;;6.03;;
15643;SDS011;7921;43.586;1.408;2024-03-22T05:44:34;10.27;;;6.87;;
15643;SDS011;7921;43.586;1.408;2024-03-22T05:46:59;6.47;;;5.73;;
15643;SDS011;7921;43.586;1.408;2024-03-22T05:49:25;8.13;;;6.40;;
15643;SDS011;7921;43.586;1.408;2024-03-22T05:51:50;9.03;;;6.10;;
15643;SDS011;7921;43.586;1.408;2024-03-22T05:54:16;7.80;;;5.80;;
15643;SDS011;7921;43.586;1.408;2024-03-22T05:56:41;6.53;;;5.37;;
15643;SDS011;7921;43.586;1.408;2024-03-22T05:59:07;7.30;;;6.60;;
15643;SDS011;7921;43.586;1.408;2024-03-22T06:01:32;8.03;;;6.10;;
15643;SDS011;7921;43.586;1.408;2024-03-22T06:03:58;7.30;;;5.50;;
15643;SDS011;7921;43.586;1.408;2024-03-22T06:06:23;7.53;;;5.90;;
15643;SDS011;7921;43.586;1.408;2024-03-22T06:08:51;9.97;;;6.57;;
15643;SDS011;7921;43.586;1.408;2024-03-22T06:11:20;9.03;;;6.47;;
15643;SDS011;7921;43.586;1.408;2024-03-22T06:13:46;7.87;;;5.77;;
15643;SDS011;7921;43.586;1.408;2024-03-22T06:16:12;8.27;;;5.53;;
15643;SDS011;7921;43.586;1.408;2024-03-22T06:18:37;7.70;;;6.10;;
15643;SDS011;7921;43.586;1.408;2024-03-22T06:21:03;7.37;;;5.97;;
15643;SDS011;7921;43.586;1.408;2024-03-22T06:23:30;7.90;;;6.40;;
15643;SDS011;7921;43.586;1.408;2024-03-22T06:25:55;5.97;;;5.37;;
15643;SDS011;7921;43.586;1.408;2024-03-22T06:28:21;6.80;;;6.00;;
15643;SDS011;7921;43.586;1.408;2024-03-22T06:30:47;7.47;;;5.90;;
15643;SDS011;7921;43.586;1.408;2024-03-22T06:33:12;8.80;;;6.30;;
15643;SDS011;7921;43.586;1.408;2024-03-22T06:35:38;7.47;;;5.93;;
15643;SDS011;7921;43.586;1.408;2024-03-22T06:38:04;6.47;;;5.80;;
15643;SDS011;7921;43.586;1.408;2024-03-22T06:40:29;7.27;;;5.47;;
15643;SDS011;7921;43.586;1.408;2024-03-22T06:42:55;6.43;;;5.60;;
15643;SDS011;7921;43.586;1.408;2024-03-22T06:45:20;7.83;;;5.80;;
15643;SDS011;7921;43.586;1.408;2024-03-22T06:47:46;9.40;;;6.13;;
15643;SDS011;7921;43.586;1.408;2024-03-22T06:50:11;7.90;;;6.33;;
15643;SDS011;7921;43.586;1.408;2024-03-22T06:52:36;6.90;;;6.03;;
15643;SDS011;7921;43.586;1.408;2024-03-22T06:55:02;7.57;;;5.77;;
15643;SDS011;7921;43.586;1.408;2024-03-22T06:57:28;7.30;;;6.53;;
15643;SDS011;7921;43.586;1.408;2024-03-22T06:59:54;8.97;;;6.77;;
15643;SDS011;7921;43.586;1.408;2024-03-22T07:02:19;7.43;;;6.10;;
15643;SDS011;7921;43.586;1.408;2024-03-22T07:04:45;7.63;;;6.57;;
15643;SDS011;7921;43.586;1.408;2024-03-22T07:07:11;11.63;;;7.13;;
15643;SDS011;7921;43.586;1.408;2024-03-22T07:09:36;7.40;;;6.67;;
15643;SDS011;7921;43.586;1.408;2024-03-22T07:12:01;10.97;;;6.93;;
15643;SDS011;7921;43.586;1.408;2024-03-22T07:14:27;11.00;;;6.80;;
15643;SDS011;7921;43.586;1.408;2024-03-22T07:16:52;10.03;;;6.93;;
15643;SDS011;7921;43.586;1.408;2024-03-22T07:19:21;11.57;;;7.67;;
15643;SDS011;7921;43.586;1.408;2024-03-22T07:21:46;11.67;;;7.67;;
15643;SDS011;7921;43.586;1.408;2024-03-22T07:24:12;11.17;;;8.00;;
15643;SDS011;7921;43.586;1.408;2024-03-22T07:26:38;12.87;;;9.40;;
15643;SDS011;7921;43.586;1.408;2024-03-22T07:29:03;9.17;;;7.80;;
15643;SDS011;7921;43.586;1.408;2024-03-22T07:31:29;13.03;;;8.40;;
15643;SDS011;7921;43.586;1.408;2024-03-22T07:33:54;12.23;;;8.60;;
15643;SDS011;7921;43.586;1.408;2024-03-22T07:36:20;11.30;;;8.37;;
15643;SDS011;7921;43.586;1.408;2024-03-22T07:38:46;9.97;;;8.20;;
15643;SDS011;7921;43.586;1.408;2024-03-22T07:41:11;10.33;;;8.03;;
15643;SDS011;7921;43.586;1.408;2024-03-22T07:43:36;12.13;;;8.67;;
15643;SDS011;7921;43.586;1.408;2024-03-22T07:46:02;11.23;;;7.53;;
15643;SDS011;7921;43.586;1.408;2024-03-22T07:48:27;10.07;;;7.87;;
15643;SDS011;7921;43.586;1.408;2024-03-22T07:50:59;10.00;;;8.03;;
15643;SDS011;7921;43.586;1.408;2024-03-22T07:53:25;12.07;;;7.70;;
15643;SDS011;7921;43.586;1.408;2024-03-22T07:55:51;10.90;;;7.37;;
15643;SDS011;7921;43.586;1.408;2024-03-22T07:58:16;7.80;;;7.10;;
15643;SDS011;7921;43.586;1.408;2024-03-22T08:00:42;12.73;;;7.90;;
15643;SDS011;7921;43.586;1.408;2024-03-22T08:03:07;11.00;;;7.20;;
15643;SDS011;7921;43.586;1.408;2024-03-22T08:05:33;10.63;;;6.57;;
15643;SDS011;7921;43.586;1.408;2024-03-22T08:07:58;8.35;;;6.57;;
15643;SDS011;7921;43.586;1.408;2024-03-22T08:10:23;8.57;;;6.83;;
15643;SDS011;7921;43.586;1.408;2024-03-22T08:12:49;9.67;;;6.97;;
15643;SDS011;7921;43.586;1.408;2024-03-22T08:15:14;7.38;;;6.05;;
15643;SDS011;7921;43.586;1.408;2024-03-22T08:17:40;8.52;;;6.65;;
15643;SDS011;7921;43.586;1.408;2024-03-22T08:20:06;8.00;;;6.32;;
15643;SDS011;7921;43.586;1.408;2024-03-22T08:22:32;8.55;;;6.35;;
15643;SDS011;7921;43.586;1.408;2024-03-22T08:24:57;9.18;;;5.78;;
15643;SDS011;7921;43.586;1.408;2024-03-22T08:27:22;7.93;;;5.88;;
15643;SDS011;7921;43.586;1.408;2024-03-22T08:29:48;9.32;;;6.60;;
15643;SDS011;7921;43.586;1.408;2024-03-22T08:32:13;9.38;;;5.97;;
15643;SDS011;7921;43.586;1.408;2024-03-22T08:34:39;9.98;;;6.07;;
15643;SDS011;7921;43.586;1.408;2024-03-22T08:37:04;8.82;;;5.65;;
15643;SDS011;7921;43.586;1.408;2024-03-22T08:39:30;9.65;;;6.15;;
15643;SDS011;7921;43.586;1.408;2024-03-22T08:41:55;7.05;;;5.38;;
15643;SDS011;7921;43.586;1.408;2024-03-22T08:44:21;9.00;;;5.82;;
15643;SDS011;7921;43.586;1.408;2024-03-22T08:46:46;7.38;;;5.30;;
15643;SDS011;7921;43.586;1.408;2024-03-22T08:49:12;7.93;;;6.03;;
15643;SDS011;7921;43.586;1.408;2024-03-22T08:51:38;7.88;;;5.80;;
15643;SDS011;7921;43.586;1.408;2024-03-22T08:54:03;8.82;;;5.07;;
15643;SDS011;7921;43.586;1.408;2024-03-22T08:56:30;7.85;;;5.75;;
15643;SDS011;7921;43.586;1.408;2024-03-22T08:58:55;7.32;;;5.40;;
15643;SDS011;7921;43.586;1.408;2024-03-22T09:01:21;11.88;;;5.75;;
15643;SDS011;7921;43.586;1.408;2024-03-22T09:03:47;7.22;;;5.28;;
15643;SDS011;7921;43.586;1.408;2024-03-22T09:06:14;9.02;;;6.20;;
15643;SDS011;7921;43.586;1.408;2024-03-22T09:08:39;8.57;;;5.18;;
15643;SDS011;7921;43.586;1.408;2024-03-22T09:11:05;9.52;;;6.07;;
15643;SDS011;7921;43.586;1.408;2024-03-22T09:13:30;10.70;;;6.03;;
15643;SDS011;7921;43.586;1.408;2024-03-22T09:15:59;10.77;;;6.05;;
15643;SDS011;7921;43.586;1.408;2024-03-22T09:18:25;6.93;;;6.18;;
15643;SDS011;7921;43.586;1.408;2024-03-22T09:20:51;7.72;;;5.95;;
15643;SDS011;7921;43.586;1.408;2024-03-22T09:23:18;12.27;;;6.68;;
15643;SDS011;7921;43.586;1.408;2024-03-22T09:25:43;9.52;;;6.40;;
15643;SDS011;7921;43.586;1.408;2024-03-22T09:28:08;12.15;;;6.75;;
15643;SDS011;7921;43.586;1.408;2024-03-22T09:30:37;10.07;;;6.15;;
15643;SDS011;7921;43.586;1.408;2024-03-22T09:33:03;5.93;;;5.07;;
15643;SDS011;7921;43.586;1.408;2024-03-22T09:35:28;16.20;;;6.75;;
15643;SDS011;7921;43.586;1.408;2024-03-22T09:37:54;6.95;;;5.80;;
15643;SDS011;7921;43.586;1.408;2024-03-22T09:40:19;12.18;;;6.82;;
15643;SDS011;7921;43.586;1.408;2024-03-22T09:42:45;12.93;;;6.07;;
15643;SDS011;7921;43.586;1.408;2024-03-22T09:45:13;6.60;;;5.25;;
15643;SDS011;7921;43.586;1.408;2024-03-22T09:47:39;7.07;;;5.20;;
15643;SDS011;7921;43.586;1.408;2024-03-22T09:50:06;9.30;;;5.65;;
15643;SDS011;7921;43.586;1.408;2024-03-22T09:52:32;6.93;;;4.50;;
15643;SDS011;7921;43.586;1.408;2024-03-22T09:54:58;8.20;;;5.45;;
15643;SDS011;7921;43.586;1.408;2024-03-22T09:57:23;8.55;;;5.00;;
15643;SDS011;7921;43.586;1.408;2024-03-22T09:59:49;13.25;;;4.80;;
15643;SDS011;7921;43.586;1.408;2024-03-22T10:02:15;8.40;;;5.63;;
15643;SDS011;7921;43.586;1.408;2024-03-22T10:04:41;7.78;;;5.35;;
15643;SDS011;7921;43.586;1.408;2024-03-22T10:07:07;8.20;;;5.55;;
15643;SDS011;7921;43.586;1.408;2024-03-22T10:09:35;8.05;;;4.97;;
15643;SDS011;7921;43.586;1.408;2024-03-22T10:12:01;6.07;;;5.30;;
15643;SDS011;7921;43.586;1.408;2024-03-22T10:14:28;6.03;;;5.13;;
15643;SDS011;7921;43.586;1.408;2024-03-22T10:16:53;8.32;;;5.25;;
15643;SDS011;7921;43.586;1.408;2024-03-22T10:19:22;10.00;;;4.97;;
15643;SDS011;7921;43.586;1.408;2024-03-22T10:21:48;8.43;;;5.60;;
15643;SDS011;7921;43.586;1.408;2024-03-22T10:24:33;9.70;;;5.78;;
15643;SDS011;7921;43.586;1.408;2024-03-22T10:26:58;7.22;;;4.70;;
15643;SDS011;7921;43.586;1.408;2024-03-22T10:29:24;8.45;;;4.70;;
15643;SDS011;7921;43.586;1.408;2024-03-22T10:31:53;10.25;;;5.60;;
15643;SDS011;7921;43.586;1.408;2024-03-22T10:34:22;6.78;;;4.70;;
15643;SDS011;7921;43.586;1.408;2024-03-22T10:36:49;7.93;;;5.07;;
15643;SDS011;7921;43.586;1.408;2024-03-22T10:39:16;8.95;;;4.93;;
15643;SDS011;7921;43.586;1.408;2024-03-22T10:41:46;8.77;;;5.35;;
15643;SDS011;7921;43.586;1.408;2024-03-22T10:44:12;6.35;;;4.55;;
15643;SDS011;7921;43.586;1.408;2024-03-22T10:46:38;8.85;;;4.32;;
15643;SDS011;7921;43.586;1.408;2024-03-22T10:49:11;9.35;;;4.85;;
15643;SDS011;7921;43.586;1.408;2024-03-22T10:51:42;8.98;;;4.45;;
15643;SDS011;7921;43.586;1.408;2024-03-22T10:54:13;7.43;;;4.30;;
15643;SDS011;7921;43.586;1.408;2024-03-22T10:56:43;6.40;;;4.40;;
15643;SDS011;7921;43.586;1.408;2024-03-22T10:59:12;6.95;;;4.38;;
15643;SDS011;7921;43.586;1.408;2024-03-22T11:02:02;8.00;;;4.50;;
15643;SDS011;7921;43.586;1.408;2024-03-22T11:04:29;8.07;;;4.78;;
15643;SDS011;7921;43.586;1.408;2024-03-22T11:06:56;5.10;;;4.15;;
15643;SDS011;7921;43.586;1.408;2024-03-22T11:09:23;6.72;;;4.53;;
15643;SDS011;7921;43.586;1.408;2024-03-22T11:11:51;5.35;;;4.22;;
15643;SDS011;7921;43.586;1.408;2024-03-22T11:14:17;6.68;;;4.78;;
15643;SDS011;7921;43.586;1.408;2024-03-22T11:16:46;6.63;;;4.55;;
15643;SDS011;7921;43.586;1.408;2024-03-22T11:19:12;6.82;;;4.55;;
15643;SDS011;7921;43.586;1.408;2024-03-22T11:21:38;5.35;;;4.18;;
15643;SDS011;7921;43.586;1.408;2024-03-22T11:24:04;5.70;;;3.95;;
15643;SDS011;7921;43.586;1.408;2024-03-22T11:26:30;7.05;;;4.57;;
15643;SDS011;7921;43.586;1.408;2024-03-22T11:28:56;7.60;;;4.68;;
15643;SDS011;7921;43.586;1.408;2024-03-22T11:31:22;4.28;;;3.85;;
15643;SDS011;7921;43.586;1.408;2024-03-22T11:33:52;6.43;;;3.78;;
15643;SDS011;7921;43.586;1.408;2024-03-22T11:36:22;5.97;;;4.10;;
15643;SDS011;7921;43.586;1.408;2024-03-22T11:38:47;7.00;;;4.20;;
15643;SDS011;7921;43.586;1.408;2024-03-22T11:41:16;6.72;;;4.03;;
15643;SDS011;7921;43.586;1.408;2024-03-22T11:43:42;7.22;;;4.18;;
15643;SDS011;7921;43.586;1.408;2024-03-22T11:46:08;6.20;;;4.32;;
15643;SDS011;7921;43.586;1.408;2024-03-22T11:48:33;8.13;;;4.18;;
15643;SDS011;7921;43.586;1.408;2024-03-22T11:51:04;5.63;;;4.03;;
15643;SDS011;7921;43.586;1.408;2024-03-22T11:53:30;5.38;;;3.80;;
15643;SDS011;7921;43.586;1.408;2024-03-22T11:55:57;7.53;;;3.80;;
15643;SDS011;7921;43.586;1.408;2024-03-22T11:58:22;6.75;;;3.47;;
15643;SDS011;7921;43.586;1.408;2024-03-22T12:00:51;6.60;;;3.72;;
15643;SDS011;7921;43.586;1.408;2024-03-22T12:03:17;6.60;;;3.58;;
15643;SDS011;7921;43.586;1.408;2024-03-22T12:05:42;5.60;;;4.03;;
15643;SDS011;7921;43.586;1.408;2024-03-22T12:08:08;9.50;;;4.25;;
15643;SDS011;7921;43.586;1.408;2024-03-22T12:10:33;10.02;;;3.55;;
15643;SDS011;7921;43.586;1.408;2024-03-22T12:12:59;8.40;;;3.83;;
15643;SDS011;7921;43.586;1.408;2024-03-22T12:15:24;5.43;;;3.40;;
15643;SDS011;7921;43.586;1.408;2024-03-22T12:17:49;6.28;;;3.83;;
15643;SDS011;7921;43.586;1.408;2024-03-22T12:20:15;6.40;;;4.35;;
15643;SDS011;7921;43.586;1.408;2024-03-22T12:22:41;6.60;;;4.00;;
15643;SDS011;7921;43.586;1.408;2024-03-22T12:25:06;4.70;;;3.33;;
15643;SDS011;7921;43.586;1.408;2024-03-22T12:27:34;7.05;;;3.38;;
15643;SDS011;7921;43.586;1.408;2024-03-22T12:30:00;10.88;;;5.72;;
15643;SDS011;7921;43.586;1.408;2024-03-22T12:32:25;7.10;;;3.70;;
15643;SDS011;7921;43.586;1.408;2024-03-22T12:34:50;8.02;;;4.07;;
15643;SDS011;7921;43.586;1.408;2024-03-22T12:37:16;5.40;;;3.40;;
15643;SDS011;7921;43.586;1.408;2024-03-22T12:39:41;6.95;;;3.50;;
15643;SDS011;7921;43.586;1.408;2024-03-22T12:42:06;7.57;;;3.22;;
15643;SDS011;7921;43.586;1.408;2024-03-22T12:44:32;3.80;;;2.92;;
15643;SDS011;7921;43.586;1.408;2024-03-22T12:46:57;5.32;;;2.85;;
15643;SDS011;7921;43.586;1.408;2024-03-22T12:49:24;5.00;;;3.17;;
15643;SDS011;7921;43.586;1.408;2024-03-22T12:51:50;5.05;;;3.10;;
15643;SDS011;7921;43.586;1.408;2024-03-22T12:54:15;4.45;;;3.30;;
15643;SDS011;7921;43.586;1.408;2024-03-22T12:56:43;5.32;;;2.92;;
15643;SDS011;7921;43.586;1.408;2024-03-22T12:59:09;4.65;;;2.90;;
15643;SDS011;7921;43.586;1.408;2024-03-22T13:01:34;6.43;;;3.72;;
15643;SDS011;7921;43.586;1.408;2024-03-22T13:04:01;8.18;;;3.58;;
15643;SDS011;7921;43.586;1.408;2024-03-22T13:06:27;5.00;;;3.30;;
15643;SDS011;7921;43.586;1.408;2024-03-22T13:08:52;5.30;;;3.10;;
15643;SDS011;7921;43.586;1.408;2024-03-22T13:11:17;6.78;;;3.38;;
15643;SDS011;7921;43.586;1.408;2024-03-22T13:13:43;6.38;;;3.15;;
15643;SDS011;7921;43.586;1.408;2024-03-22T13:16:08;6.40;;;2.85;;
15643;SDS011;7921;43.586;1.408;2024-03-22T13:18:36;6.00;;;3.05;;
15643;SDS011;7921;43.586;1.408;2024-03-22T13:21:02;5.80;;;3.38;;
15643;SDS011;7921;43.586;1.408;2024-03-22T13:23:30;5.72;;;3.25;;
15643;SDS011;7921;43.586;1.408;2024-03-22T13:25:55;3.92;;;3.00;;
15643;SDS011;7921;43.586;1.408;2024-03-22T13:28:24;5.90;;;2.88;;
15643;SDS011;7921;43.586;1.408;2024-03-22T13:30:58;6.28;;;3.28;;
15643;SDS011;7921;43.586;1.408;2024-03-22T13:33:24;5.15;;;2.80;;
15643;SDS011;7921;43.586;1.408;2024-03-22T13:35:49;5.00;;;2.90;;
15643;SDS011;7921;43.586;1.408;2024-03-22T13:38:15;6.68;;;3.58;;
15643;SDS011;7921;43.586;1.408;2024-03-22T13:40:41;4.88;;;3.38;;
15643;SDS011;7921;43.586;1.408;2024-03-22T13:43:06;5.90;;;3.42;;
15643;SDS011;7921;43.586;1.408;2024-03-22T13:45:32;4.60;;;2.90;;
15643;SDS011;7921;43.586;1.408;2024-03-22T13:47:58;3.80;;;2.72;;
15643;SDS011;7921;43.586;1.408;2024-03-22T13:50:23;7.18;;;3.15;;
15643;SDS011;7921;43.586;1.408;2024-03-22T13:52:48;6.60;;;3.00;;
15643;SDS011;7921;43.586;1.408;2024-03-22T13:55:14;7.45;;;3.00;;
15643;SDS011;7921;43.586;1.408;2024-03-22T13:57:39;7.13;;;2.40;;
15643;SDS011;7921;43.586;1.408;2024-03-22T14:00:05;6.10;;;3.13;;
15643;SDS011;7921;43.586;1.408;2024-03-22T14:02:32;3.45;;;2.35;;
15643;SDS011;7921;43.586;1.408;2024-03-22T14:04:58;5.22;;;2.63;;
15643;SDS011;7921;43.586;1.408;2024-03-22T14:07:23;5.32;;;2.72;;
15643;SDS011;7921;43.586;1.408;2024-03-22T14:09:48;5.10;;;2.67;;
15643;SDS011;7921;43.586;1.408;2024-03-22T14:12:14;6.88;;;3.70;;
15643;SDS011;7921;43.586;1.408;2024-03-22T14:14:39;8.77;;;3.40;;
15643;SDS011;7921;43.586;1.408;2024-03-22T14:17:05;6.32;;;2.55;;
15643;SDS011;7921;43.586;1.408;2024-03-22T14:19:31;5.35;;;2.72;;
15643;SDS011;7921;43.586;1.408;2024-03-22T14:21:56;7.03;;;2.45;;
15643;SDS011;7921;43.586;1.408;2024-03-22T14:24:21;6.97;;;2.60;;
15643;SDS011;7921;43.586;1.408;2024-03-22T14:26:47;8.15;;;2.63;;
15643;SDS011;7921;43.586;1.408;2024-03-22T14:29:12;6.65;;;2.92;;
15643;SDS011;7921;43.586;1.408;2024-03-22T14:31:38;5.78;;;2.78;;
15643;SDS011;7921;43.586;1.408;2024-03-22T14:34:06;6.85;;;2.88;;
15643;SDS011;7921;43.586;1.408;2024-03-22T14:36:32;8.40;;;3.17;;
15643;SDS011;7921;43.586;1.408;2024-03-22T14:38:58;6.22;;;2.58;;
15643;SDS011;7921;43.586;1.408;2024-03-22T14:41:23;6.55;;;2.90;;
15643;SDS011;7921;43.586;1.408;2024-03-22T14:43:49;5.90;;;2.30;;
15643;SDS011;7921;43.586;1.408;2024-03-22T14:46:14;4.88;;;3.03;;
15643;SDS011;7921;43.586;1.408;2024-03-22T14:48:40;5.10;;;2.97;;
15643;SDS011;7921;43.586;1.408;2024-03-22T14:51:06;8.02;;;2.30;;